Slinger, Wisconsin
Current Conditions -  °F | °C
As of 4:10 PM on Monday 26 Jan 2015 (Local Time) from KETB Reporting Station
Light Snow Light Snow  
Wind Chill: 20°   Ceiling: 2000
Heat Index: 27°   Visibility: 4mi
Dew Point: 19°   Wind: 6mph
Humidity: 74%   Direction: 150°SSE
Pressure: 29.84"   Gusts: NA
Location:  43.33°N, 88.29°W
Report Text: KETB 262210Z AUTO 15005KT 4SM -SN SCT015 BKN020 OVC038 M03/M07 A2984 RMK AO2
Loading
Personal Weather Stations






























Interactive Weather Map New forecast layout! Learn more

10-Day Weather Forecast

Advertisements
Track Severe Weather on mobile